Main page
METAR-TAF:

METAR-TAF

Airports :

Beauvechain Air Base

Beauvechain, Belgium

latitude: 50-45N, longitude: 004-46E, elevation: 105 m

Current weather observation

The report was made 30 minutes ago, at 05:25 UTC
Wind 6 kt from the South/Southwest
Temperature 20°C
Humidity 68%
Pressure 1018 hPa
Visibility 10 km or more
Broken clouds at a height of 6000 ft

METAR: EBBE 230525Z 21006KT 9999 BKN060 20/14 Q1018 BLU BLU

Time: 07:55 (05:55 UTC)

Forecast

The report was made 14 hours and 14 minutes ago, at 15:41 UTC
Forecast valid from 21 at 19 UTC to 22 at 07 UTC
Wind 6 kt from the North/Northwest
Visibility 10 km or more
Broken clouds at a height of 6000 ft

TAF: EBBE 211541Z 2119/2207 34006KT 9999 BKN060

Weather observations and forecasts of more than 4000 airports (METAR and TAF reports).

The available stations are represented by yellow and red dots on the map.

Hover mouse over dot to see the name of the station.

Then click to see weather observations and forecasts.

To change the map : click on the green buttons with a black cross to zoom in, on the green button with a dash to zoom out, or on the green arrows for adjacent maps.


METAR-TAF: